Time;durP1;ratioP1;P1;durP2;ratioP2;P2;SDS_P1;SDS_P2;PMS_P1;PMS_P2;Temp;Humidity;BMP_temperature;BMP_pressure;BME280_temperature;BME280_humidity;BME280_pressure;Samples;Min_cycle;Max_cycle;Signal;HPM_P1;HPM_P2
2021/12/19 00:00:21;;;;;;;8.18;5.90;;;9.40;99.30;;;;;;5056645;28;20080;-82
2021/12/19 00:03:18;;;;;;;9.32;5.93;;;9.20;99.30;;;;;;5048512;28;20176;-81
2021/12/19 00:10:53;;;;;;;6.65;4.57;;;9.10;99.60;;;;;;5033309;28;20041;-82
2021/12/19 00:13:19;;;;;;;6.65;4.90;;;9.10;99.50;;;;;;5030645;28;20392;-82
2021/12/19 00:15:45;;;;;;;7.13;4.70;;;9.00;99.40;;;;;;5033536;28;20030;-82
2021/12/19 00:18:10;;;;;;;5.88;4.53;;;9.00;99.40;;;;;;5032974;28;20030;-82
2021/12/19 00:20:36;;;;;;;5.88;4.10;;;9.00;99.40;;;;;;5033559;28;20025;-82
2021/12/19 00:23:02;;;;;;;7.20;5.05;;;9.00;99.40;;;;;;5033209;28;20477;-82
2021/12/19 00:25:27;;;;;;;6.38;4.60;;;9.00;99.40;;;;;;5032547;28;20032;-82
2021/12/19 00:27:53;;;;;;;7.10;4.90;;;8.90;99.30;;;;;;5033180;28;20037;-82
2021/12/19 00:30:19;;;;;;;7.30;5.28;;;8.90;99.20;;;;;;5033397;28;20083;-82
2021/12/19 00:32:44;;;;;;;6.90;5.40;;;8.90;99.30;;;;;;5032534;28;20041;-82
2021/12/19 00:35:10;;;;;;;6.35;4.70;;;8.80;99.30;;;;;;5032740;28;20030;-82
2021/12/19 00:37:36;;;;;;;6.88;4.82;;;8.70;99.50;;;;;;5033355;28;20021;-82
2021/12/19 00:40:03;;;;;;;7.65;5.50;;;8.80;99.60;;;;;;5033492;28;20458;-82
2021/12/19 00:42:36;;;;;;;7.65;5.10;;;8.70;99.50;;;;;;5032848;28;20018;-82
2021/12/19 00:45:15;;;;;;;;;;;8.70;99.60;;;;;;5033200;28;20030;-83
2021/12/19 00:47:42;;;;;;;6.78;5.35;;;8.80;99.70;;;;;;5033083;28;19952;-83
2021/12/19 00:50:08;;;;;;;8.50;5.47;;;8.80;99.50;;;;;;5033323;28;20033;-82
2021/12/19 00:52:34;;;;;;;8.38;5.20;;;8.90;99.40;;;;;;5032905;28;20531;-82
2021/12/19 00:55:00;;;;;;;7.40;5.45;;;8.80;99.70;;;;;;5039612;28;20044;-82
2021/12/19 00:57:26;;;;;;;7.50;4.88;;;8.80;99.60;;;;;;5050409;28;20041;-83
2021/12/19 00:59:52;;;;;;;7.47;5.07;;;8.70;99.60;;;;;;5032758;28;20083;-82
2021/12/19 01:02:17;;;;;;;6.65;4.60;;;8.70;99.70;;;;;;5032604;28;20021;-82
2021/12/19 01:04:43;;;;;;;6.93;5.05;;;8.70;99.70;;;;;;5032750;28;20030;-82
2021/12/19 01:07:09;;;;;;;7.68;5.43;;;8.80;99.70;;;;;;5032560;28;20464;-82
2021/12/19 01:09:35;;;;;;;6.88;5.15;;;8.80;99.60;;;;;;5032494;28;20033;-82
2021/12/19 01:12:01;;;;;;;7.25;5.18;;;8.80;99.70;;;;;;5034113;28;20443;-82
2021/12/19 01:14:27;;;;;;;7.72;5.10;;;8.80;99.70;;;;;;5039037;28;20056;-82
2021/12/19 01:16:53;;;;;;;6.72;4.47;;;8.70;99.70;;;;;;5039151;28;20451;-82
2021/12/19 01:19:18;;;;;;;7.22;4.75;;;8.80;99.80;;;;;;5039356;28;20112;-82
2021/12/19 01:21:45;;;;;;;7.38;5.03;;;8.80;99.80;;;;;;5038463;28;20025;-82
2021/12/19 01:24:11;;;;;;;5.65;4.15;;;8.80;99.70;;;;;;5039297;28;20025;-82
2021/12/19 01:26:37;;;;;;;7.60;5.20;;;8.80;99.90;;;;;;5039160;28;20040;-82
2021/12/19 01:29:03;;;;;;;7.95;4.53;;;8.80;99.90;;;;;;5039109;28;20044;-82
2021/12/19 01:31:28;;;;;;;7.30;4.55;;;8.80;99.90;;;;;;5038318;28;20025;-82
2021/12/19 01:33:54;;;;;;;7.47;4.60;;;8.70;99.90;;;;;;5038525;28;20068;-82
2021/12/19 01:36:20;;;;;;;7.72;4.70;;;8.70;99.90;;;;;;5039240;28;20044;-82
2021/12/19 01:38:45;;;;;;;7.70;5.07;;;8.70;99.90;;;;;;5037123;28;20049;-83
2021/12/19 01:41:11;;;;;;;8.90;5.78;;;8.60;99.90;;;;;;5038922;28;20465;-82
2021/12/19 01:43:37;;;;;;;10.00;6.00;;;8.60;99.90;;;;;;5038810;28;20044;-82
2021/12/19 01:46:02;;;;;;;8.98;5.97;;;8.60;99.90;;;;;;5038502;28;20029;-83
2021/12/19 01:48:28;;;;;;;11.02;6.35;;;8.60;99.90;;;;;;5038881;28;20041;-83
2021/12/19 01:50:54;;;;;;;13.50;6.55;;;8.60;99.90;;;;;;5050494;28;20013;-83
2021/12/19 01:53:20;;;;;;;12.80;7.30;;;8.70;99.90;;;;;;5061182;28;20049;-81
2021/12/19 01:55:47;;;;;;;11.18;7.28;;;8.80;99.90;;;;;;5044631;28;20029;-82
2021/12/19 01:58:14;;;;;;;14.07;8.10;;;8.80;99.90;;;;;;5038464;28;20527;-82
2021/12/19 02:00:43;;;;;;;14.68;9.13;;;8.70;99.90;;;;;;5038813;28;20033;-82
2021/12/19 02:03:10;;;;;;;18.42;8.20;;;8.70;99.90;;;;;;5038613;28;20052;-82
2021/12/19 02:05:36;;;;;;;14.90;9.23;;;8.70;99.90;;;;;;5038128;28;20021;-82
2021/12/19 02:08:04;;;;;;;14.43;9.18;;;8.80;99.90;;;;;;5038294;28;20029;-82
2021/12/19 02:10:31;;;;;;;12.95;8.43;;;8.70;99.90;;;;;;5038466;28;20112;-82
2021/12/19 02:12:59;;;;;;;11.90;7.38;;;8.70;99.90;;;;;;5037862;28;20447;-82
2021/12/19 02:15:27;;;;;;;9.77;6.07;;;8.70;99.90;;;;;;5038042;28;20029;-82
2021/12/19 02:17:56;;;;;;;9.02;5.75;;;8.70;99.90;;;;;;5038290;28;20040;-83
2021/12/19 02:20:23;;;;;;;9.13;5.78;;;8.70;99.90;;;;;;5038373;28;20032;-82
2021/12/19 02:22:49;;;;;;;7.88;5.05;;;8.70;99.90;;;;;;5035968;28;20029;-82
2021/12/19 02:25:15;;;;;;;5.63;3.63;;;8.70;99.90;;;;;;5034940;28;20021;-81
2021/12/19 02:27:42;;;;;;;4.40;3.00;;;8.70;99.90;;;;;;5035353;28;20120;-81
2021/12/19 02:30:09;;;;;;;4.88;2.55;;;8.70;99.90;;;;;;5035313;28;20094;-81
2021/12/19 02:32:38;;;;;;;3.90;2.25;;;8.70;99.90;;;;;;5034984;28;20075;-80
2021/12/19 02:35:07;;;;;;;4.30;2.47;;;8.70;99.90;;;;;;5033111;28;20036;-80
2021/12/19 02:48:14;;;;;;;3.83;2.45;;;8.60;99.90;;;;;;5054499;28;20056;-82
2021/12/19 02:50:53;;;;;;;3.63;2.15;;;8.60;99.90;;;;;;5057107;28;20041;-81
2021/12/19 02:53:35;;;;;;;5.35;2.72;;;8.60;99.90;;;;;;5034574;28;20484;-83
2021/12/19 02:56:06;;;;;;;3.78;2.72;;;8.70;99.90;;;;;;5034758;28;20021;-83
2021/12/19 02:58:33;;;;;;;5.05;2.80;;;8.80;99.90;;;;;;5034731;28;20034;-82
2021/12/19 03:01:02;;;;;;;5.30;3.13;;;8.80;99.90;;;;;;5034350;28;20021;-83
2021/12/19 03:03:27;;;;;;;4.95;2.78;;;8.90;99.90;;;;;;5034344;28;20033;-82
2021/12/19 03:05:53;;;;;;;4.78;2.70;;;8.80;99.90;;;;;;5034350;28;20032;-83
2021/12/19 03:08:19;;;;;;;7.00;2.88;;;8.80;99.90;;;;;;5034579;28;20057;-83
2021/12/19 03:18:28;;;;;;;6.18;4.18;;;8.90;99.90;;;;;;5034022;28;20036;-83
2021/12/19 03:20:54;;;;;;;5.75;3.70;;;9.00;99.90;;;;;;5034194;28;20083;-83
2021/12/19 03:23:20;;;;;;;5.30;3.78;;;9.00;99.90;;;;;;5034352;28;20496;-83
2021/12/19 03:25:46;;;;;;;6.45;3.50;;;9.00;99.90;;;;;;5034470;28;20094;-83
2021/12/19 03:28:13;;;;;;;5.55;3.58;;;8.90;99.90;;;;;;5033625;28;20531;-82
2021/12/19 03:30:41;;;;;;;5.50;3.53;;;8.90;99.90;;;;;;5033962;28;20420;-83
2021/12/19 03:33:07;;;;;;;5.50;3.10;;;8.90;99.90;;;;;;5034290;28;20033;-83
2021/12/19 03:35:33;;;;;;;4.88;2.95;;;8.90;99.90;;;;;;5033286;28;20469;-83
2021/12/19 03:38:02;;;;;;;5.32;3.00;;;8.90;99.90;;;;;;5034699;28;20067;-84
2021/12/19 03:40:40;;;;;;;4.13;2.70;;;9.00;99.90;;;;;;5033335;28;20115;-84
2021/12/19 03:43:08;;;;;;;4.82;2.75;;;9.00;99.90;;;;;;5034487;28;20053;-84
2021/12/19 03:45:35;;;;;;;5.50;3.03;;;9.00;99.90;;;;;;5043857;28;20025;-83
2021/12/19 03:48:03;;;;;;;4.07;2.85;;;9.00;99.90;;;;;;5050549;28;20079;-84
2021/12/19 03:50:31;;;;;;;4.28;2.75;;;9.00;99.90;;;;;;5033514;28;20056;-84
2021/12/19 03:52:57;;;;;;;5.15;3.20;;;9.00;99.90;;;;;;5033684;28;20092;-84
2021/12/19 03:55:24;;;;;;;4.53;2.85;;;9.00;99.90;;;;;;5033451;28;20492;-83
2021/12/19 03:57:50;;;;;;;5.47;3.17;;;9.00;99.90;;;;;;5033757;28;20029;-83
2021/12/19 04:00:24;;;;;;;4.68;3.30;;;9.00;99.90;;;;;;5033326;28;20036;-82
2021/12/19 04:02:53;;;;;;;6.53;3.30;;;9.00;99.90;;;;;;5031104;28;20033;-83
2021/12/19 04:05:19;;;;;;;6.38;3.70;;;9.00;99.90;;;;;;5033389;28;20567;-82
2021/12/19 04:07:45;;;;;;;6.20;3.80;;;9.00;99.90;;;;;;5033227;28;20104;-82
2021/12/19 04:10:11;;;;;;;5.60;3.55;;;9.00;99.90;;;;;;5033338;28;20029;-84
2021/12/19 04:12:36;;;;;;;6.68;4.03;;;9.00;99.90;;;;;;5032773;28;20097;-82
2021/12/19 04:15:04;;;;;;;5.60;3.80;;;9.00;99.90;;;;;;5033113;28;20026;-83
2021/12/19 04:17:29;;;;;;;6.75;4.22;;;9.10;99.90;;;;;;5033358;28;20030;-83
2021/12/19 04:19:55;;;;;;;7.03;4.38;;;9.00;99.90;;;;;;5033244;28;20047;-83
2021/12/19 04:22:21;;;;;;;5.95;3.75;;;9.10;99.90;;;;;;5033660;28;20029;-84
2021/12/19 04:24:47;;;;;;;7.70;4.70;;;9.10;99.90;;;;;;5033401;28;20037;-83
2021/12/19 04:27:13;;;;;;;8.10;4.80;;;9.10;99.90;;;;;;5033394;28;20049;-83
2021/12/19 04:29:39;;;;;;;8.70;4.47;;;9.10;99.90;;;;;;5032813;28;20071;-82
2021/12/19 04:32:07;;;;;;;8.10;4.70;;;9.00;99.90;;;;;;5033470;28;20075;-83
2021/12/19 04:34:33;;;;;;;8.40;4.85;;;9.00;99.90;;;;;;5033108;28;20033;-84
2021/12/19 04:37:06;;;;;;;10.07;5.20;;;9.00;99.90;;;;;;5032957;28;20454;-83
2021/12/19 04:39:55;;;;;;;10.70;5.55;;;8.90;99.90;;;;;;5032000;28;20468;-83
2021/12/19 04:51:18;;;;;;;8.38;5.47;;;8.80;99.90;;;;;;5032429;28;20048;-82
2021/12/19 05:15:24;;;;;;;12.73;7.30;;;9.00;99.90;;;;;;5030058;28;20032;-79
2021/12/19 05:17:50;;;;;;;13.25;6.68;;;9.00;99.90;;;;;;5033086;28;20040;-78
2021/12/19 05:20:21;;;;;;;11.50;7.15;;;9.10;99.90;;;;;;5032034;28;20034;-78
2021/12/19 05:22:49;;;;;;;14.48;7.30;;;9.10;99.90;;;;;;5032387;28;20507;-78
2021/12/19 05:25:18;;;;;;;12.23;6.97;;;9.10;99.90;;;;;;5032218;28;20040;-81
2021/12/19 05:27:53;;;;;;;11.23;7.43;;;9.00;99.90;;;;;;5032311;28;20511;-82
2021/12/19 05:30:19;;;;;;;11.98;7.25;;;9.00;99.90;;;;;;5032696;28;20052;-81
2021/12/19 05:32:47;;;;;;;12.15;7.00;;;9.00;99.90;;;;;;5032509;28;20021;-81
2021/12/19 05:35:16;;;;;;;11.60;7.63;;;9.10;99.90;;;;;;5031772;28;20500;-80
2021/12/19 05:45:55;;;;;;;10.98;6.95;;;9.20;99.90;;;;;;5031902;28;20040;-82
2021/12/19 05:48:21;;;;;;;9.77;6.10;;;9.20;99.90;;;;;;5031910;28;20037;-83
2021/12/19 05:50:46;;;;;;;8.32;5.55;;;9.20;99.90;;;;;;5032071;28;20159;-86
2021/12/19 05:53:13;;;;;;;5.57;3.83;;;9.20;99.90;;;;;;5031679;28;20492;-82
2021/12/19 05:55:39;;;;;;;5.07;3.13;;;9.20;99.90;;;;;;5031596;28;20017;-82
2021/12/19 05:58:05;;;;;;;5.43;3.05;;;9.20;99.90;;;;;;5031623;28;20475;-83
2021/12/19 06:00:34;;;;;;;4.25;2.53;;;9.20;99.90;;;;;;5034499;28;20057;-82
2021/12/19 06:03:01;;;;;;;3.28;2.13;;;9.20;99.90;;;;;;5035325;28;20060;-82
2021/12/19 06:05:27;;;;;;;2.50;1.65;;;9.30;99.90;;;;;;5033050;28;20022;-81
2021/12/19 06:07:52;;;;;;;4.53;1.80;;;9.20;99.90;;;;;;5035934;28;20029;-82
2021/12/19 06:10:20;;;;;;;3.13;1.48;;;9.20;99.90;;;;;;5035938;28;20033;-81
2021/12/19 06:12:46;;;;;;;2.80;1.50;;;9.20;99.90;;;;;;5034370;28;20057;-82
2021/12/19 06:15:12;;;;;;;2.03;1.00;;;9.20;99.90;;;;;;5035147;28;20034;-81
2021/12/19 06:17:40;;;;;;;1.83;0.73;;;9.20;99.90;;;;;;5035348;28;20017;-81
2021/12/19 06:20:06;;;;;;;1.58;0.90;;;9.20;99.90;;;;;;5035454;28;20057;-82
2021/12/19 06:22:32;;;;;;;1.35;0.80;;;9.20;99.90;;;;;;5035672;28;20120;-86
2021/12/19 06:24:57;;;;;;;1.80;0.60;;;9.10;99.90;;;;;;5036140;28;20503;-81
2021/12/19 06:27:23;;;;;;;1.30;0.50;;;9.10;99.90;;;;;;5035135;28;20088;-84
2021/12/19 06:29:49;;;;;;;0.82;0.38;;;9.10;99.90;;;;;;5034433;28;20115;-83
2021/12/19 06:32:16;;;;;;;1.73;0.50;;;9.10;99.90;;;;;;5036881;28;20052;-82
2021/12/19 06:34:42;;;;;;;2.75;0.60;;;9.10;99.90;;;;;;5053041;28;20010;-80
2021/12/19 06:37:10;;;;;;;2.97;0.80;;;9.10;99.90;;;;;;5059786;28;20046;-79
2021/12/19 06:39:36;;;;;;;1.85;0.40;;;9.10;99.90;;;;;;5041579;28;20049;-78
2021/12/19 06:42:03;;;;;;;2.20;0.60;;;9.10;99.90;;;;;;5035465;28;20037;-80
2021/12/19 06:44:29;;;;;;;1.48;0.40;;;9.10;99.90;;;;;;5034919;28;20423;-79
2021/12/19 06:46:54;;;;;;;0.80;0.38;;;9.10;99.90;;;;;;5035161;28;20030;-79
2021/12/19 06:49:20;;;;;;;2.40;0.65;;;9.10;99.90;;;;;;5034523;28;20040;-81
2021/12/19 06:51:46;;;;;;;1.00;0.30;;;9.10;99.90;;;;;;5034300;28;20040;-81
2021/12/19 06:54:11;;;;;;;1.00;0.30;;;9.10;99.90;;;;;;5034702;28;20074;-81
2021/12/19 06:56:37;;;;;;;1.25;0.20;;;9.00;99.90;;;;;;5034117;28;20396;-80
2021/12/19 06:59:02;;;;;;;1.30;0.30;;;9.10;99.90;;;;;;5034743;28;20045;-81
2021/12/19 07:01:28;;;;;;;1.80;0.20;;;9.10;99.90;;;;;;5034567;28;20021;-81
2021/12/19 07:03:54;;;;;;;0.88;0.30;;;9.10;99.90;;;;;;5034939;28;20021;-81
2021/12/19 07:06:19;;;;;;;0.88;0.30;;;9.10;99.90;;;;;;5034289;28;20380;-81
2021/12/19 07:08:45;;;;;;;0.70;0.20;;;9.10;99.90;;;;;;5034283;28;20043;-82
2021/12/19 07:11:11;;;;;;;1.52;0.50;;;9.10;99.90;;;;;;5033585;28;20036;-81
2021/12/19 07:13:37;;;;;;;1.05;0.40;;;9.10;99.90;;;;;;5033694;28;20033;-81
2021/12/19 07:16:03;;;;;;;0.93;0.17;;;9.10;99.90;;;;;;5034554;28;20029;-81
2021/12/19 07:18:29;;;;;;;0.80;0.20;;;9.10;99.90;;;;;;5034420;28;20026;-81
2021/12/19 07:20:54;;;;;;;0.80;0.17;;;9.10;99.90;;;;;;5034153;28;20124;-82
2021/12/19 07:23:21;;;;;;;0.60;0.20;;;9.10;99.90;;;;;;5033986;28;20040;-82
2021/12/19 07:25:47;;;;;;;0.90;0.20;;;9.20;99.90;;;;;;5034420;28;20112;-83
2021/12/19 07:28:14;;;;;;;0.88;0.17;;;9.20;99.90;;;;;;5034623;28;20128;-81
2021/12/19 07:30:40;;;;;;;1.33;0.20;;;9.20;99.90;;;;;;5036994;28;20040;-81
2021/12/19 07:33:08;;;;;;;0.80;0.40;;;9.30;99.90;;;;;;5058257;28;20088;-79
2021/12/19 07:35:38;;;;;;;0.40;0.10;;;9.20;99.80;;;;;;5045488;28;20021;-78
2021/12/19 07:38:05;;;;;;;0.70;0.10;;;9.20;99.80;;;;;;5033735;28;20037;-79
2021/12/19 07:40:36;;;;;;;0.93;0.17;;;9.20;99.70;;;;;;5034110;28;20373;-78
2021/12/19 07:43:10;;;;;;;1.15;0.20;;;9.10;99.80;;;;;;5033317;28;20045;-78
2021/12/19 07:45:37;;;;;;;1.08;0.22;;;9.10;99.90;;;;;;5033979;28;20033;-78
2021/12/19 07:48:03;;;;;;;0.85;0.28;;;9.10;99.90;;;;;;5033442;28;20056;-78
2021/12/19 07:50:30;;;;;;;0.95;0.17;;;9.10;99.90;;;;;;5033656;28;20053;-79
2021/12/19 07:52:56;;;;;;;0.98;0.30;;;9.10;99.90;;;;;;5033052;28;20048;-79
2021/12/19 07:55:22;;;;;;;2.47;0.30;;;9.20;99.90;;;;;;5033811;28;20033;-78
2021/12/19 07:57:47;;;;;;;2.35;0.20;;;9.20;99.90;;;;;;5033597;28;20105;-79
2021/12/19 08:00:15;;;;;;;0.90;0.32;;;9.20;99.90;;;;;;5032865;28;20158;-79
2021/12/19 08:02:42;;;;;;;1.27;0.30;;;9.20;99.90;;;;;;5033197;28;20044;-80
2021/12/19 08:05:08;;;;;;;1.88;0.40;;;9.20;99.90;;;;;;5033204;28;20029;-80
2021/12/19 08:07:34;;;;;;;1.10;0.22;;;9.10;99.90;;;;;;5033566;28;20022;-78
2021/12/19 08:11:39;;;;;;;1.65;0.20;;;9.10;99.90;;;;;;5033747;28;20447;-78
2021/12/19 08:12:58;;;;;;;0.73;0.20;;;9.10;99.90;;;;;;5032003;28;20108;-79
2021/12/19 08:15:24;;;;;;;0.77;0.30;;;9.10;99.90;;;;;;5032972;28;20028;-78
2021/12/19 08:17:49;;;;;;;1.10;0.40;;;9.10;99.90;;;;;;5032863;28;20034;-78
2021/12/19 08:20:17;;;;;;;1.08;0.20;;;9.10;99.90;;;;;;5031003;28;20067;-78
2021/12/19 08:22:50;;;;;;;0.40;0.20;;;9.20;99.90;;;;;;5032482;28;20102;-79
2021/12/19 08:25:16;;;;;;;1.33;0.30;;;9.20;99.90;;;;;;5034553;28;20052;-78
2021/12/19 08:27:42;;;;;;;0.50;0.20;;;9.20;99.90;;;;;;5051495;28;20014;-79
2021/12/19 08:30:10;;;;;;;0.65;0.30;;;9.20;99.90;;;;;;5057029;28;20021;-81
2021/12/19 08:32:37;;;;;;;0.65;0.20;;;9.30;99.90;;;;;;5043694;28;20469;-84
2021/12/19 08:35:04;;;;;;;1.27;0.40;;;9.30;99.90;;;;;;5032918;28;20028;-85
2021/12/19 08:37:30;;;;;;;0.93;0.20;;;9.30;99.90;;;;;;5032127;28;20057;-80
2021/12/19 08:39:56;;;;;;;0.82;0.30;;;9.30;99.90;;;;;;5032671;28;20064;-83
2021/12/19 08:42:22;;;;;;;1.45;0.30;;;9.30;99.90;;;;;;5032666;28;20022;-80
2021/12/19 08:44:48;;;;;;;1.15;0.30;;;9.30;99.90;;;;;;5032328;28;20057;-80
2021/12/19 08:47:15;;;;;;;0.93;0.30;;;9.40;99.90;;;;;;5032902;28;20065;-79
2021/12/19 08:49:41;;;;;;;1.17;0.32;;;9.30;99.90;;;;;;5030876;28;20120;-80
2021/12/19 08:52:09;;;;;;;1.35;0.40;;;9.30;99.90;;;;;;5031963;28;20116;-83
2021/12/19 08:54:35;;;;;;;1.17;0.40;;;9.20;99.90;;;;;;5032675;28;20037;-87
2021/12/19 08:57:01;;;;;;;1.00;0.25;;;9.40;99.90;;;;;;5033268;28;20479;-83
2021/12/19 08:59:29;;;;;;;0.73;0.20;;;9.40;99.90;;;;;;5029267;28;20094;-84
2021/12/19 09:01:57;;;;;;;4.70;0.30;;;9.40;99.90;;;;;;5032123;28;20400;-83
2021/12/19 09:04:23;;;;;;;1.05;0.10;;;9.40;99.90;;;;;;5031056;28;20140;-86
2021/12/19 09:06:49;;;;;;;6.10;0.30;;;9.40;99.90;;;;;;5031032;28;20104;-90
2021/12/19 09:09:15;;;;;;;7.38;0.50;;;9.50;99.90;;;;;;5032131;28;20171;-86
2021/12/19 09:11:41;;;;;;;3.42;1.05;;;9.50;99.90;;;;;;5031033;28;20037;-82
2021/12/19 09:14:07;;;;;;;1.55;0.20;;;9.60;99.90;;;;;;5031263;28;20120;-82
2021/12/19 09:16:33;;;;;;;3.08;0.40;;;9.70;99.90;;;;;;5029812;28;20133;-84
2021/12/19 09:18:59;;;;;;;1.25;0.20;;;9.70;99.90;;;;;;5032317;28;20049;-84
2021/12/19 09:21:24;;;;;;;1.33;0.25;;;9.80;99.90;;;;;;5032180;28;20021;-84
2021/12/19 09:23:50;;;;;;;2.58;0.20;;;9.80;99.90;;;;;;5033701;28;20033;-78
2021/12/19 09:26:16;;;;;;;1.17;0.20;;;9.80;99.80;;;;;;5050137;28;20431;-83
2021/12/19 09:28:41;;;;;;;0.75;0.25;;;9.80;99.90;;;;;;5043883;28;20098;-83
2021/12/19 09:31:07;;;;;;;0.57;0.25;;;9.90;99.90;;;;;;5034251;28;20021;-90
2021/12/19 09:33:33;;;;;;;2.28;0.40;;;10.00;99.90;;;;;;5032892;28;20025;-86
2021/12/19 09:35:59;;;;;;;1.20;0.30;;;10.00;99.90;;;;;;5035845;28;20068;-87
2021/12/19 09:38:26;;;;;;;2.50;0.50;;;10.10;99.90;;;;;;5035701;28;20041;-81
2021/12/19 09:40:59;;;;;;;2.42;0.57;;;10.10;99.70;;;;;;5035058;28;20079;-82
2021/12/19 09:43:43;;;;;;;1.77;0.30;;;10.10;99.30;;;;;;5035585;28;20022;-82
2021/12/19 09:46:17;;;;;;;1.73;0.30;;;10.10;99.10;;;;;;5033661;28;20033;-80
2021/12/19 09:48:45;;;;;;;1.77;0.52;;;10.10;99.20;;;;;;5032524;28;20068;-79
2021/12/19 09:51:13;;;;;;;2.63;0.60;;;10.10;99.30;;;;;;5035851;28;20104;-82
2021/12/19 09:53:40;;;;;;;2.25;0.50;;;10.00;99.10;;;;;;5036039;28;20045;-81
2021/12/19 09:56:07;;;;;;;4.53;0.80;;;10.00;99.20;;;;;;5035305;28;20033;-80
2021/12/19 09:58:35;;;;;;;1.88;0.70;;;10.00;99.20;;;;;;5035821;28;20053;-83
2021/12/19 10:01:03;;;;;;;3.30;0.73;;;10.00;99.20;;;;;;5035922;28;20033;-88
2021/12/19 10:03:28;;;;;;;3.55;0.98;;;10.10;99.10;;;;;;5035898;28;20068;-82
2021/12/19 10:06:22;;;;;;;4.63;1.42;;;10.10;99.30;;;;;;5036202;28;20052;-81
2021/12/19 10:08:52;;;;;;;;;;;10.10;98.90;;;;;;5033780;28;20454;-78
2021/12/19 10:14:31;;;;;;;5.40;1.80;;;10.10;98.80;;;;;;5033893;28;20377;-77
2021/12/19 10:17:00;;;;;;;4.88;1.75;;;10.00;98.70;;;;;;5033839;28;20480;-78
2021/12/19 10:19:45;;;;;;;5.30;2.10;;;10.10;98.50;;;;;;5038080;28;20029;-76
2021/12/19 10:22:32;;;;;;;4.60;1.85;;;9.90;98.10;;;;;;5040339;28;20029;-78
2021/12/19 10:25:24;;;;;;;3.22;1.90;;;9.80;98.40;;;;;;5034948;28;20025;-78
2021/12/19 10:27:56;;;;;;;6.53;2.00;;;9.80;98.80;;;;;;5032362;28;20161;-78
2021/12/19 10:30:23;;;;;;;6.55;1.77;;;9.80;99.00;;;;;;5031670;28;20037;-78
2021/12/19 10:32:52;;;;;;;8.10;1.75;;;9.80;99.00;;;;;;5029656;28;20037;-78
2021/12/19 10:35:21;;;;;;;7.85;1.80;;;9.80;99.00;;;;;;5030378;28;20025;-78
2021/12/19 10:37:46;;;;;;;8.50;2.15;;;9.80;99.00;;;;;;5033080;28;20499;-78
2021/12/19 10:40:12;;;;;;;4.45;2.20;;;9.80;99.10;;;;;;5033841;28;20120;-78
2021/12/19 10:42:59;;;;;;;6.88;2.08;;;9.90;99.00;;;;;;5033828;28;20079;-78
2021/12/19 10:45:45;;;;;;;6.80;2.22;;;9.90;98.90;;;;;;5033840;28;20022;-78
2021/12/19 10:48:21;;;;;;;4.55;1.75;;;9.80;98.90;;;;;;5031915;28;20053;-78
2021/12/19 10:51:07;;;;;;;7.97;1.92;;;9.80;99.30;;;;;;5031585;28;20057;-78
2021/12/19 10:53:35;;;;;;;6.25;1.98;;;9.90;99.50;;;;;;5034091;28;20099;-78
2021/12/19 10:56:05;;;;;;;7.85;1.98;;;10.00;99.20;;;;;;5033784;28;20385;-78
2021/12/19 10:58:36;;;;;;;7.95;1.73;;;10.00;98.90;;;;;;5034727;28;20060;-78
2021/12/19 11:01:07;;;;;;;5.72;2.47;;;10.00;98.70;;;;;;5034497;28;20068;-78
2021/12/19 11:03:42;;;;;;;6.47;2.10;;;10.00;98.50;;;;;;5034452;28;20108;-78
2021/12/19 11:06:34;;;;;;;4.63;1.80;;;10.00;98.70;;;;;;5034411;28;20029;-78
2021/12/19 11:09:05;;;;;;;7.25;2.05;;;10.00;98.80;;;;;;5028303;28;20037;-78
2021/12/19 11:11:33;;;;;;;5.38;1.10;;;10.00;98.90;;;;;;5034122;28;20021;-78
2021/12/19 11:13:59;;;;;;;5.70;1.73;;;10.00;98.90;;;;;;5033844;28;20052;-77
2021/12/19 11:16:26;;;;;;;6.20;2.22;;;10.10;99.00;;;;;;5034793;28;20101;-78
2021/12/19 11:18:52;;;;;;;5.90;1.00;;;10.10;98.40;;;;;;5038689;28;20021;-78
2021/12/19 11:21:18;;;;;;;6.18;2.10;;;10.00;98.40;;;;;;5035692;28;20060;-79
2021/12/19 11:23:45;;;;;;;10.90;2.50;;;10.00;98.50;;;;;;5034069;28;20025;-78
2021/12/19 11:26:11;;;;;;;6.40;1.73;;;10.10;98.40;;;;;;5033818;28;20029;-78
2021/12/19 11:28:37;;;;;;;8.57;2.85;;;10.10;98.40;;;;;;5033528;28;20041;-78
2021/12/19 11:31:04;;;;;;;9.75;2.30;;;10.10;98.30;;;;;;5033730;28;20095;-78
2021/12/19 11:33:49;;;;;;;8.88;2.33;;;10.00;98.50;;;;;;5033721;28;20036;-78
2021/12/19 11:36:16;;;;;;;7.80;2.30;;;10.10;98.40;;;;;;5033610;28;20385;-79
2021/12/19 11:38:47;;;;;;;7.28;2.60;;;10.10;98.60;;;;;;5033935;28;20041;-78
2021/12/19 11:41:12;;;;;;;10.75;2.75;;;10.20;98.70;;;;;;5033313;28;20052;-79
2021/12/19 11:43:39;;;;;;;11.63;3.05;;;10.20;98.40;;;;;;5033611;28;20021;-78
2021/12/19 11:46:22;;;;;;;7.93;2.70;;;10.20;98.20;;;;;;5033717;28;20033;-79
2021/12/19 11:49:24;;;;;;;7.90;2.33;;;10.20;98.00;;;;;;5034114;28;20626;-79
2021/12/19 11:52:22;;;;;;;12.00;2.63;;;10.10;97.80;;;;;;5033412;28;20026;-78
2021/12/19 11:55:13;;;;;;;5.28;1.58;;;10.10;97.60;;;;;;5032020;28;20132;-79
2021/12/19 11:57:43;;;;;;;6.38;1.92;;;9.90;97.20;;;;;;5033237;28;20037;-78
2021/12/19 12:00:44;;;;;;;5.20;1.50;;;9.70;97.60;;;;;;5031416;28;20108;-79
2021/12/19 12:03:13;;;;;;;10.52;4.25;;;9.70;98.20;;;;;;5030026;28;20042;-77
2021/12/19 12:05:48;;;;;;;12.75;3.17;;;9.80;98.40;;;;;;5033037;28;20025;-78
2021/12/19 12:08:22;;;;;;;6.35;2.80;;;9.90;98.30;;;;;;5033858;28;20067;-78
2021/12/19 12:10:48;;;;;;;5.43;1.80;;;9.90;98.00;;;;;;5033323;28;20033;-78
2021/12/19 12:13:23;;;;;;;5.75;2.00;;;9.90;98.20;;;;;;5033504;28;20034;-78
2021/12/19 12:15:51;;;;;;;7.20;1.95;;;10.00;98.50;;;;;;5044688;28;20029;-78
2021/12/19 12:18:31;;;;;;;9.63;3.05;;;10.10;98.30;;;;;;5055142;28;20013;-78
2021/12/19 12:20:57;;;;;;;9.95;1.90;;;10.10;98.20;;;;;;5034021;28;20026;-78
2021/12/19 12:23:27;;;;;;;8.57;2.08;;;10.10;97.80;;;;;;5032613;28;20032;-78
2021/12/19 12:25:54;;;;;;;4.07;2.25;;;10.10;97.80;;;;;;5030426;28;20036;-78
2021/12/19 12:28:20;;;;;;;2.58;1.20;;;10.10;97.90;;;;;;5032729;28;20026;-78
2021/12/19 12:30:50;;;;;;;4.38;1.40;;;10.00;97.70;;;;;;5032703;28;20480;-78
2021/12/19 12:33:19;;;;;;;4.68;1.38;;;10.10;97.80;;;;;;5031993;28;20061;-78
2021/12/19 12:35:48;;;;;;;3.03;1.40;;;10.10;97.90;;;;;;5032413;28;20029;-78
2021/12/19 12:38:15;;;;;;;8.13;1.80;;;10.20;97.90;;;;;;5032847;28;20108;-77
2021/12/19 12:41:07;;;;;;;8.23;1.95;;;10.20;97.80;;;;;;5032781;28;20033;-78
2021/12/19 12:43:40;;;;;;;3.67;1.10;;;10.30;97.70;;;;;;5030526;28;20052;-78
2021/12/19 12:46:17;;;;;;;4.10;1.70;;;10.30;97.60;;;;;;5032436;28;20060;-78
2021/12/19 12:48:53;;;;;;;7.47;2.25;;;10.30;97.80;;;;;;5030741;28;20124;-78
2021/12/19 12:51:26;;;;;;;4.07;1.58;;;10.30;97.60;;;;;;5029422;28;20041;-77
2021/12/19 12:53:54;;;;;;;7.65;2.20;;;10.20;97.60;;;;;;5032074;28;20049;-78
2021/12/19 12:56:23;;;;;;;6.60;1.95;;;10.20;97.60;;;;;;5032050;28;20452;-78
2021/12/19 12:58:54;;;;;;;7.35;1.65;;;10.20;97.60;;;;;;5032627;28;20029;-78
2021/12/19 13:01:36;;;;;;;4.68;1.70;;;10.20;98.00;;;;;;5032226;28;20033;-78
2021/12/19 13:04:13;;;;;;;6.18;1.90;;;10.20;97.90;;;;;;5031031;28;20036;-80
2021/12/19 13:07:07;;;;;;;3.75;1.58;;;10.30;97.90;;;;;;5032630;28;20108;-79
2021/12/19 13:09:43;;;;;;;5.25;1.80;;;10.30;97.80;;;;;;5032020;28;20041;-77
2021/12/19 13:12:17;;;;;;;4.85;1.88;;;10.20;97.80;;;;;;5049069;28;20036;-81
2021/12/19 13:15:05;;;;;;;9.48;2.05;;;10.20;97.90;;;;;;5040800;28;20113;-79
2021/12/19 13:17:40;;;;;;;3.47;1.10;;;10.20;98.10;;;;;;5031673;28;20468;-81
2021/12/19 13:20:10;;;;;;;3.00;1.02;;;10.20;98.10;;;;;;5032187;28;20025;-82
2021/12/19 13:22:45;;;;;;;7.75;1.40;;;10.20;98.30;;;;;;5030478;28;20547;-82
2021/12/19 13:25:18;;;;;;;3.53;1.40;;;10.30;98.30;;;;;;5031676;28;20053;-79
2021/12/19 13:27:55;;;;;;;3.00;1.00;;;10.30;98.10;;;;;;5030731;28;20485;-79
2021/12/19 13:30:31;;;;;;;3.72;1.40;;;10.20;97.90;;;;;;5028976;28;20041;-77
2021/12/19 13:33:07;;;;;;;4.07;1.13;;;10.20;97.90;;;;;;5031785;28;20041;-78
2021/12/19 13:35:42;;;;;;;4.13;1.60;;;10.10;97.90;;;;;;5030412;28;20369;-79
2021/12/19 13:38:22;;;;;;;4.40;1.40;;;10.20;98.00;;;;;;5030916;28;20021;-86
2021/12/19 13:40:48;;;;;;;5.38;1.52;;;10.20;98.10;;;;;;5032073;28;20099;-80
2021/12/19 13:43:17;;;;;;;7.25;1.17;;;10.10;98.00;;;;;;5031604;28;20048;-84
2021/12/19 13:45:47;;;;;;;5.28;1.42;;;10.10;98.00;;;;;;5031032;28;20036;-76
2021/12/19 13:48:18;;;;;;;7.43;1.73;;;10.00;98.00;;;;;;5030777;28;20426;-79
2021/12/19 13:50:49;;;;;;;4.80;1.10;;;10.00;97.90;;;;;;5030921;28;20045;-80
2021/12/19 13:53:16;;;;;;;4.95;1.30;;;10.00;98.00;;;;;;5030864;28;20129;-80
2021/12/19 13:56:02;;;;;;;9.15;1.63;;;10.00;98.10;;;;;;5031555;28;20047;-82
2021/12/19 13:58:33;;;;;;;5.30;1.30;;;10.00;98.30;;;;;;5031338;28;20026;-78
2021/12/19 14:01:10;;;;;;;4.70;0.75;;;10.10;98.30;;;;;;5031773;28;20085;-81
2021/12/19 14:03:50;;;;;;;7.28;1.35;;;10.10;98.40;;;;;;5031676;28;20025;-80
2021/12/19 14:06:25;;;;;;;4.93;0.95;;;10.20;98.50;;;;;;5030268;28;20108;-79
2021/12/19 14:09:05;;;;;;;5.43;1.00;;;10.10;98.40;;;;;;5039430;28;20045;-79